createdAt,value
2022-09-23T00:01:11.031Z,98571.39
2022-09-23T00:03:42.236Z,98572.86
2022-09-23T00:06:18.833Z,98577.81
2022-09-23T00:08:56.782Z,98576.20
2022-09-23T00:11:30.930Z,98580.38
2022-09-23T00:14:00.955Z,98577.84
2022-09-23T00:16:40.285Z,98571.34
2022-09-23T00:19:08.940Z,98575.91
2022-09-23T00:21:38.402Z,98571.58
2022-09-23T00:24:08.184Z,98567.08
2022-09-23T00:26:36.820Z,98571.23
2022-09-23T00:29:10.937Z,98565.77
2022-09-23T00:31:42.719Z,98570.77
2022-09-23T00:34:14.216Z,98575.23
2022-09-23T00:36:43.485Z,98566.17
2022-09-23T00:42:30.142Z,98565.06
2022-09-23T00:45:00.122Z,98562.14
2022-09-23T00:48:01.693Z,98560.58
2022-09-23T00:50:36.132Z,98560.99
2022-09-23T00:53:12.908Z,98555.10
2022-09-23T00:56:07.429Z,98557.72
2022-09-23T00:58:49.585Z,98559.70
2022-09-23T01:01:23.201Z,98559.15
2022-09-23T01:03:59.500Z,98559.48
2022-09-23T01:06:31.084Z,98555.74
2022-09-23T01:09:04.864Z,98560.15
2022-09-23T01:13:04.557Z,98558.61
2022-09-23T01:16:10.479Z,98559.89
2022-09-23T01:19:26.975Z,98557.88
2022-09-23T01:22:11.549Z,98557.33
2022-09-23T01:25:20.032Z,98563.23
2022-09-23T01:28:33.430Z,98558.27
2022-09-23T01:31:15.656Z,98555.90
2022-09-23T01:34:10.956Z,98556.64
2022-09-23T01:37:28.793Z,98560.55
2022-09-23T01:40:25.902Z,98559.81
2022-09-23T01:43:10.342Z,98566.89
2022-09-23T01:46:02.600Z,98566.19
2022-09-23T01:48:55.644Z,98561.27
2022-09-23T01:51:38.252Z,98560.98
2022-09-23T01:54:58.049Z,98559.60
2022-09-23T01:57:40.986Z,98563.80
2022-09-23T02:00:24.305Z,98564.06
2022-09-23T02:03:04.743Z,98570.64
2022-09-23T02:05:51.857Z,98575.09
2022-09-23T02:08:42.612Z,98569.01
2022-09-23T02:11:15.638Z,98577.17
2022-09-23T02:14:20.011Z,98579.73
2022-09-23T02:16:57.151Z,98572.21
2022-09-23T02:19:43.735Z,98572.20
2022-09-23T02:23:01.762Z,98568.70
2022-09-23T02:26:03.198Z,98565.69
2022-09-23T02:28:58.506Z,98569.29
2022-09-23T02:31:40.973Z,98573.63
2022-09-23T02:34:46.738Z,98576.77
2022-09-23T02:37:44.665Z,98580.66
2022-09-23T02:40:53.637Z,98577.59
2022-09-23T02:44:16.146Z,98576.80
2022-09-23T02:46:50.941Z,98579.07
2022-09-23T02:49:36.728Z,98582.23
2022-09-23T02:52:12.175Z,98582.11
2022-09-23T02:54:44.190Z,98582.16
2022-09-23T02:57:14.819Z,98578.23
2022-09-23T02:59:43.846Z,98579.23
2022-09-23T03:02:31.082Z,98578.77
2022-09-23T03:05:30.296Z,98581.10
2022-09-23T03:08:13.060Z,98581.65
2022-09-23T03:11:07.478Z,98585.14
2022-09-23T03:14:17.023Z,98588.42
2022-09-23T03:20:31.107Z,98588.73
2022-09-23T03:23:37.597Z,98590.95
2022-09-23T03:27:05.690Z,98597.02
2022-09-23T03:33:16.890Z,98596.92
2022-09-23T03:57:08.444Z,98594.65
2022-09-23T04:06:33.527Z,98595.52
2022-09-23T04:17:41.163Z,98599.31
2022-09-23T04:24:28.591Z,98599.59
2022-09-23T04:31:16.750Z,98594.27
2022-09-23T04:34:03.447Z,98591.31
2022-09-23T04:36:34.853Z,98588.71
2022-09-23T04:39:03.780Z,98587.67
2022-09-23T04:41:32.576Z,98588.86
2022-09-23T04:44:01.987Z,98595.27
2022-09-23T04:46:30.222Z,98597.92
2022-09-23T04:48:59.282Z,98598.80
2022-09-23T04:54:31.253Z,98606.05
2022-09-23T04:57:03.596Z,98607.64
2022-09-23T04:59:35.680Z,98607.33
2022-09-23T05:02:03.965Z,98609.67
2022-09-23T05:04:33.872Z,98611.48
2022-09-23T05:07:03.491Z,98612.65
2022-09-23T05:10:02.371Z,98616.85
2022-09-23T05:12:37.312Z,98624.09
2022-09-23T05:15:23.093Z,98622.98
2022-09-23T05:17:51.379Z,98624.25
2022-09-23T05:20:19.768Z,98624.94
2022-09-23T05:22:48.183Z,98628.41
2022-09-23T05:25:17.193Z,98628.77
2022-09-23T05:27:46.180Z,98633.92
2022-09-23T05:30:38.351Z,98630.50
2022-09-23T05:33:09.794Z,98629.81
2022-09-23T05:35:38.061Z,98629.28
2022-09-23T05:42:25.832Z,98638.34
2022-09-23T05:49:13.044Z,98637.90
2022-09-23T06:00:33.476Z,98638.34
2022-09-23T06:07:22.002Z,98633.95
2022-09-23T06:18:36.026Z,98630.72
2022-09-23T06:22:40.282Z,98632.36
2022-09-23T06:29:28.467Z,98628.61
2022-09-23T06:32:15.766Z,98628.52
2022-09-23T06:35:11.899Z,98621.20
2022-09-23T06:38:48.040Z,98622.80
2022-09-23T06:42:07.138Z,98620.85
2022-09-23T06:44:38.887Z,98617.54
2022-09-23T06:47:08.219Z,98615.30
2022-09-23T06:49:38.146Z,98610.91
2022-09-23T06:52:09.447Z,98609.77
2022-09-23T06:54:38.147Z,98613.84
2022-09-23T06:57:07.016Z,98611.11
2022-09-23T06:59:40.021Z,98617.01
2022-09-23T07:02:13.601Z,98615.63
2022-09-23T07:04:45.250Z,98619.94
2022-09-23T07:07:42.479Z,98617.89
2022-09-23T07:10:15.005Z,98620.04
2022-09-23T07:12:43.699Z,98620.17
2022-09-23T07:15:24.880Z,98620.13
2022-09-23T07:18:00.627Z,98622.90
2022-09-23T07:20:34.377Z,98622.50
2022-09-23T07:23:03.450Z,98623.86
2022-09-23T07:25:34.314Z,98620.23
2022-09-23T07:28:04.012Z,98619.91
2022-09-23T07:30:36.633Z,98618.61
2022-09-23T07:33:17.450Z,98624.33
2022-09-23T07:35:53.239Z,98617.26
2022-09-23T07:38:26.328Z,98614.46
2022-09-23T07:40:55.203Z,98614.27
2022-09-23T07:43:29.392Z,98615.91
2022-09-23T07:46:04.936Z,98610.37
2022-09-23T07:48:36.068Z,98613.80
2022-09-23T07:51:29.056Z,98616.65
2022-09-23T07:54:01.799Z,98614.90
2022-09-23T07:56:31.768Z,98612.38
2022-09-23T07:59:00.581Z,98607.55
2022-09-23T08:01:32.798Z,98608.88
2022-09-23T08:04:06.045Z,98607.16
2022-09-23T08:06:35.052Z,98606.27
2022-09-23T08:09:04.730Z,98601.58
2022-09-23T08:11:33.602Z,98600.69
2022-09-23T08:14:02.059Z,98603.95
2022-09-23T08:16:30.818Z,98602.04
2022-09-23T08:18:59.213Z,98596.06
2022-09-23T08:21:28.664Z,98597.65
2022-09-23T08:23:57.433Z,98593.67
2022-09-23T08:26:25.993Z,98588.84
2022-09-23T08:28:54.677Z,98590.46
2022-09-23T08:31:27.307Z,98585.58
2022-09-23T08:33:57.708Z,98586.79
2022-09-23T08:36:27.572Z,98584.35
2022-09-23T08:38:59.103Z,98581.02
2022-09-23T08:45:08.434Z,98575.77
2022-09-23T08:48:13.234Z,98573.30
2022-09-23T08:50:53.853Z,98573.51
2022-09-23T08:53:42.578Z,98568.45
2022-09-23T08:56:21.752Z,98563.48
2022-09-23T08:59:18.146Z,98565.46
2022-09-23T09:01:58.854Z,98562.55
2022-09-23T09:04:46.015Z,98557.23
2022-09-23T09:07:37.339Z,98552.18
2022-09-23T09:10:38.839Z,98553.14
2022-09-23T09:13:22.388Z,98539.71
2022-09-23T09:16:23.882Z,98538.98
2022-09-23T09:19:28.703Z,98543.14
2022-09-23T09:22:01.566Z,98543.88
2022-09-23T09:24:38.260Z,98546.98
2022-09-23T09:27:13.881Z,98549.84
2022-09-23T09:29:52.007Z,98546.77
2022-09-23T09:32:32.571Z,98549.52
2022-09-23T09:35:18.471Z,98544.56
2022-09-23T09:37:48.133Z,98549.89
2022-09-23T09:40:20.875Z,98546.91
2022-09-23T09:42:51.063Z,98547.17
2022-09-23T09:45:47.216Z,98544.42
2022-09-23T09:48:33.698Z,98548.97
2022-09-23T09:51:24.326Z,98547.57
2022-09-23T09:54:31.619Z,98549.27
2022-09-23T09:57:07.624Z,98548.95
2022-09-23T09:59:36.004Z,98547.42
2022-09-23T10:02:30.743Z,98549.64
2022-09-23T10:05:23.520Z,98554.38
2022-09-23T10:07:51.667Z,98550.20
2022-09-23T10:10:32.941Z,98550.95
2022-09-23T10:13:16.270Z,98552.15
2022-09-23T10:15:45.785Z,98548.63
2022-09-23T10:18:20.630Z,98545.16
2022-09-23T10:20:49.094Z,98546.98
2022-09-23T10:23:22.634Z,98544.86
2022-09-23T10:26:18.544Z,98541.98
2022-09-23T10:28:59.591Z,98540.96
2022-09-23T10:31:32.192Z,98540.95
2022-09-23T10:34:27.503Z,98543.15
2022-09-23T10:37:06.218Z,98544.77
2022-09-23T10:39:57.110Z,98545.38
2022-09-23T10:43:11.902Z,98542.98
2022-09-23T10:45:59.654Z,98542.84
2022-09-23T10:48:43.250Z,98534.23
2022-09-23T10:51:36.766Z,98531.89
2022-09-23T10:54:27.058Z,98525.05
2022-09-23T10:57:42.514Z,98531.60
2022-09-23T11:00:36.662Z,98520.34
2022-09-23T11:04:00.491Z,98514.17
2022-09-23T11:07:12.307Z,98508.91
2022-09-23T11:10:14.542Z,98500.48
2022-09-23T11:13:31.958Z,98498.57
2022-09-23T11:16:43.768Z,98498.69
2022-09-23T11:19:42.208Z,98490.77
2022-09-23T11:22:53.722Z,98490.06
2022-09-23T11:25:59.612Z,98484.73
2022-09-23T11:28:54.037Z,98481.71
2022-09-23T11:31:59.311Z,98475.45
2022-09-23T11:38:41.582Z,98473.20
2022-09-23T11:57:06.831Z,98455.48
2022-09-23T12:00:23.533Z,98455.04
2022-09-23T12:08:34.140Z,98447.33
2022-09-23T12:11:10.625Z,98447.20
2022-09-23T12:14:30.190Z,98444.70
2022-09-23T12:59:09.766Z,98420.82
2022-09-23T13:17:39.659Z,98440.23
2022-09-23T13:28:58.946Z,98423.67
2022-09-23T13:31:28.791Z,98427.20
2022-09-23T13:34:06.995Z,98431.23
2022-09-23T13:36:44.158Z,98429.06
2022-09-23T13:39:28.958Z,98431.27
2022-09-23T13:42:03.195Z,98434.20
2022-09-23T13:44:33.920Z,98432.26
2022-09-23T13:47:04.980Z,98428.96
2022-09-23T13:49:36.625Z,98432.31
2022-09-23T13:52:08.069Z,98438.63
2022-09-23T14:17:01.008Z,98418.63
2022-09-23T14:19:30.070Z,98416.84
2022-09-23T14:22:02.270Z,98419.79
2022-09-23T14:24:34.382Z,98419.64
2022-09-23T14:27:42.351Z,98421.90
2022-09-23T14:30:32.894Z,98422.44
2022-09-23T14:33:13.624Z,98420.26
2022-09-23T14:41:22.972Z,98420.94
2022-09-23T14:59:23.896Z,98425.64
2022-09-23T15:02:35.906Z,98427.55
2022-09-23T15:06:00.091Z,98433.80
2022-09-23T15:28:02.273Z,98415.64
2022-09-23T15:30:37.188Z,98413.58
2022-09-23T15:33:14.425Z,98412.02
2022-09-23T15:35:49.370Z,98419.85
2022-09-23T15:38:29.865Z,98424.07
2022-09-23T15:40:59.834Z,98425.63
2022-09-23T15:43:28.649Z,98417.27
2022-09-23T15:49:39.446Z,98428.48
2022-09-23T15:52:44.253Z,98427.33
2022-09-23T15:55:29.342Z,98437.80
2022-09-23T15:58:01.561Z,98438.35
2022-09-23T16:01:29.005Z,98437.40
2022-09-23T16:04:17.829Z,98442.45
2022-09-23T16:07:34.476Z,98444.98
2022-09-23T16:10:14.457Z,98451.00
2022-09-23T16:17:18.610Z,98450.94
2022-09-23T16:20:19.839Z,98444.30
2022-09-23T16:23:40.049Z,98451.09
2022-09-23T16:50:03.675Z,98497.00
2022-09-23T16:52:31.984Z,98494.64
2022-09-23T16:55:00.532Z,98500.05
2022-09-23T16:57:30.203Z,98502.40
2022-09-23T17:00:17.175Z,98502.11
2022-09-23T17:03:03.914Z,98501.09
2022-09-23T17:05:37.240Z,98498.34
2022-09-23T17:15:40.418Z,98510.13
2022-09-23T17:18:21.810Z,98511.79
2022-09-23T17:21:03.787Z,98508.46
2022-09-23T17:23:36.328Z,98509.09
2022-09-23T17:26:09.938Z,98514.59
2022-09-23T17:47:41.919Z,98523.48
2022-09-23T17:56:57.717Z,98528.63
2022-09-23T18:31:06.575Z,98547.73
2022-09-23T19:19:42.409Z,98582.34
2022-09-23T19:22:30.917Z,98580.17
2022-09-23T19:25:03.773Z,98583.27
2022-09-23T19:27:50.736Z,98579.86
2022-09-23T19:34:46.351Z,98593.21
2022-09-23T20:02:23.507Z,98587.73
2022-09-23T20:26:31.148Z,98591.30
2022-09-23T20:29:05.452Z,98595.16
2022-09-23T20:34:57.892Z,98595.27
2022-09-23T20:37:30.942Z,98590.61
2022-09-23T20:40:08.779Z,98592.09
2022-09-23T20:42:43.260Z,98596.92
2022-09-23T20:45:20.807Z,98593.46
2022-09-23T20:47:54.705Z,98587.23
2022-09-23T20:51:10.501Z,98595.73
2022-09-23T20:53:56.691Z,98598.71
2022-09-23T20:56:32.048Z,98597.20
2022-09-23T20:59:19.121Z,98597.98
2022-09-23T21:01:47.999Z,98592.49
2022-09-23T21:05:55.412Z,98593.57
2022-09-23T21:12:43.512Z,98600.95
2022-09-23T21:15:12.094Z,98597.90
2022-09-23T21:17:41.608Z,98604.69
2022-09-23T21:20:10.124Z,98607.16
2022-09-23T21:22:49.301Z,98610.69
2022-09-23T21:25:29.643Z,98615.77
2022-09-23T21:28:02.088Z,98612.08
2022-09-23T21:30:30.577Z,98612.81
2022-09-23T21:33:00.002Z,98618.09
2022-09-23T21:35:28.814Z,98618.00
2022-09-23T21:38:00.344Z,98618.83
2022-09-23T21:40:47.095Z,98616.73
2022-09-23T21:43:16.786Z,98616.00
2022-09-23T21:45:47.400Z,98614.88
2022-09-23T21:48:24.967Z,98613.52
2022-09-23T21:51:06.294Z,98616.69
2022-09-23T21:53:39.694Z,98615.08
2022-09-23T21:56:09.583Z,98618.65
2022-09-23T21:58:39.873Z,98618.15
2022-09-23T22:01:24.525Z,98610.35
2022-09-23T22:03:56.301Z,98608.46
2022-09-23T22:06:27.674Z,98605.77
2022-09-23T22:09:01.661Z,98604.30
2022-09-23T22:14:51.758Z,98611.17
2022-09-23T22:17:23.816Z,98613.73
2022-09-23T22:19:52.080Z,98618.48
2022-09-23T22:22:20.527Z,98618.31
2022-09-23T22:24:49.143Z,98621.42
2022-09-23T22:27:21.259Z,98621.78
2022-09-23T22:30:07.932Z,98618.63
2022-09-23T22:32:46.355Z,98617.55
2022-09-23T22:35:17.828Z,98617.89
2022-09-23T22:37:50.794Z,98617.31
2022-09-23T22:40:19.522Z,98624.39
2022-09-23T22:42:48.788Z,98621.71
2022-09-23T22:45:17.127Z,98624.42
2022-09-23T22:47:46.001Z,98625.83
2022-09-23T22:50:15.673Z,98624.92
2022-09-23T22:52:47.729Z,98626.75
2022-09-23T22:55:16.184Z,98626.48
2022-09-23T22:57:44.516Z,98626.56
2022-09-23T23:00:13.680Z,98632.70
2022-09-23T23:02:42.614Z,98624.28
2022-09-23T23:05:11.749Z,98629.55
2022-09-23T23:07:40.666Z,98632.60
2022-09-23T23:10:10.659Z,98633.38
2022-09-23T23:12:39.702Z,98632.71
2022-09-23T23:15:12.784Z,98636.23
2022-09-23T23:17:43.654Z,98632.92
2022-09-23T23:20:13.605Z,98631.02
2022-09-23T23:22:41.904Z,98632.45
2022-09-23T23:25:10.412Z,98636.92
2022-09-23T23:27:42.042Z,98631.38
2022-09-23T23:30:11.201Z,98627.95
2022-09-23T23:32:39.717Z,98625.06
2022-09-23T23:35:09.107Z,98625.88
2022-09-23T23:37:39.301Z,98623.58
2022-09-23T23:40:08.705Z,98623.23
2022-09-23T23:42:37.246Z,98620.38
2022-09-23T23:45:06.192Z,98619.77
2022-09-23T23:47:37.068Z,98619.05
2022-09-23T23:50:06.574Z,98620.29
2022-09-23T23:52:35.163Z,98617.11
2022-09-23T23:55:03.568Z,98614.52
2022-09-23T23:57:32.043Z,98617.17
